Time;durP1;ratioP1;P1;durP2;ratioP2;P2;SDS_P1;SDS_P2;PMS_P1;PMS_P2;Temp;Humidity;BMP_temperature;BMP_pressure;BME280_temperature;BME280_humidity;BME280_pressure;Samples;Min_cycle;Max_cycle;Signal;HPM_P1;HPM_P2
2023/06/06 00:01:24;;;;;;;8.35;5.97;;;;;;;;;;5016388;28;20061;-83
2023/06/06 00:04:10;;;;;;;6.85;5.53;;;;;;;;;;5029195;28;20053;-85
2023/06/06 00:06:56;;;;;;;9.13;6.00;;;;;;;;;;5016359;28;20049;-83
2023/06/06 00:09:43;;;;;;;10.65;6.05;;;;;;;;;;5021604;28;20042;-84
2023/06/06 00:12:28;;;;;;;8.65;6.13;;;;;;;;;;5015647;28;20488;-85
2023/06/06 00:15:15;;;;;;;11.43;6.43;;;;;;;;;;5016075;28;20041;-85
2023/06/06 00:18:00;;;;;;;9.35;6.40;;;;;;;;;;5016206;28;20049;-84
2023/06/06 00:20:46;;;;;;;8.13;6.20;;;;;;;;;;5028633;28;20046;-84
2023/06/06 00:23:31;;;;;;;11.90;6.40;;;;;;;;;;5020873;28;20392;-86
2023/06/06 00:26:16;;;;;;;9.90;6.00;;;;;;;;;;5028687;28;20058;-84
2023/06/06 00:29:05;;;;;;;16.40;6.90;;;;;;;;;;5015485;28;20038;-88
2023/06/06 00:31:50;;;;;;;12.48;6.25;;;;;;;;;;5015619;28;20046;-87
2023/06/06 00:34:35;;;;;;;8.43;6.45;;;;;;;;;;5021119;28;20496;-87
2023/06/06 00:37:20;;;;;;;11.05;6.65;;;;;;;;;;5015093;28;20046;-87
2023/06/06 00:40:06;;;;;;;9.43;5.40;;;;;;;;;;5006260;28;20045;-87
2023/06/06 00:42:53;;;;;;;8.52;6.07;;;;;;;;;;5021097;28;20050;-87
2023/06/06 00:45:38;;;;;;;9.23;6.10;;;;;;;;;;5020963;28;20054;-87
2023/06/06 00:48:24;;;;;;;8.93;5.55;;;;;;;;;;5020730;28;20053;-86
2023/06/06 00:51:10;;;;;;;11.35;5.75;;;;;;;;;;5028188;28;20404;-86
2023/06/06 00:53:57;;;;;;;9.52;6.07;;;;;;;;;;5020996;28;20046;-87
2023/06/06 00:56:44;;;;;;;12.27;6.00;;;;;;;;;;5015081;28;20045;-87
2023/06/06 00:59:29;;;;;;;13.70;6.50;;;;;;;;;;5014490;28;20042;-85
2023/06/06 01:02:17;;;;;;;8.93;5.78;;;;;;;;;;5020431;28;20042;-86
2023/06/06 01:05:06;;;;;;;9.63;5.93;;;;;;;;;;5020462;28;20045;-86
2023/06/06 01:07:53;;;;;;;12.30;5.85;;;;;;;;;;5014551;28;20049;-85
2023/06/06 01:10:40;;;;;;;8.82;5.70;;;;;;;;;;5019877;28;20042;-86
2023/06/06 01:13:36;;;;;;;8.00;5.57;;;;;;;;;;5020220;28;20049;-85
2023/06/06 01:16:22;;;;;;;9.50;5.65;;;;;;;;;;5018905;28;20046;-85
2023/06/06 01:19:16;;;;;;;9.05;5.78;;;;;;;;;;5020101;28;20046;-87
2023/06/06 01:22:01;;;;;;;9.32;5.85;;;;;;;;;;5019441;28;20418;-87
2023/06/06 01:24:50;;;;;;;10.65;5.93;;;;;;;;;;5027675;28;20484;-86
2023/06/06 01:27:36;;;;;;;11.60;5.55;;;;;;;;;;5013593;28;20037;-85
2023/06/06 01:30:25;;;;;;;9.02;6.07;;;;;;;;;;5016084;28;20053;-87
2023/06/06 01:33:29;;;;;;;6.43;5.55;;;;;;;;;;5020161;28;20046;-86
2023/06/06 01:36:37;;;;;;;8.73;6.22;;;;;;;;;;5020111;28;20041;-85
2023/06/06 01:39:25;;;;;;;8.80;6.40;;;;;;;;;;5014232;28;20038;-86
2023/06/06 01:42:10;;;;;;;14.00;5.97;;;;;;;;;;5020252;28;20046;-86
2023/06/06 01:44:58;;;;;;;8.65;5.28;;;;;;;;;;5019130;28;20046;-86
2023/06/06 01:47:44;;;;;;;6.40;5.43;;;;;;;;;;5014429;28;20049;-87
2023/06/06 01:50:32;;;;;;;8.25;5.30;;;;;;;;;;5026770;28;20046;-85
2023/06/06 01:53:18;;;;;;;8.35;5.28;;;;;;;;;;5014311;28;20046;-86
2023/06/06 01:56:05;;;;;;;8.30;5.85;;;;;;;;;;5019602;28;20041;-86
2023/06/06 01:58:50;;;;;;;8.43;5.65;;;;;;;;;;5019690;28;20483;-87
2023/06/06 02:01:35;;;;;;;8.95;6.72;;;;;;;;;;5019812;28;20054;-85
2023/06/06 02:04:21;;;;;;;9.93;6.68;;;;;;;;;;5013567;28;20046;-86
2023/06/06 02:07:06;;;;;;;10.07;6.82;;;;;;;;;;5019741;28;20041;-85
2023/06/06 02:09:52;;;;;;;7.57;5.85;;;;;;;;;;5019719;28;20049;-86
2023/06/06 02:12:39;;;;;;;9.15;6.00;;;;;;;;;;5019802;28;20046;-87
2023/06/06 02:15:26;;;;;;;10.38;5.93;;;;;;;;;;5019220;28;20046;-87
2023/06/06 02:18:12;;;;;;;11.30;6.22;;;;;;;;;;5019773;28;20435;-87
2023/06/06 02:20:57;;;;;;;7.80;5.63;;;;;;;;;;5025739;28;20050;-86
2023/06/06 02:23:43;;;;;;;17.45;5.65;;;;;;;;;;5013853;28;20046;-87
2023/06/06 02:26:31;;;;;;;9.57;5.35;;;;;;;;;;5006949;28;20042;-86
2023/06/06 02:29:16;;;;;;;8.80;6.25;;;;;;;;;;5018249;28;20042;-86
2023/06/06 02:32:05;;;;;;;7.93;5.82;;;;;;;;;;5018926;28;20045;-87
2023/06/06 02:34:50;;;;;;;15.25;6.15;;;;;;;;;;5013748;28;20034;-86
2023/06/06 02:37:36;;;;;;;9.07;5.85;;;;;;;;;;5019295;28;20050;-86
2023/06/06 02:40:23;;;;;;;8.23;5.65;;;;;;;;;;5018720;28;20427;-86
2023/06/06 02:43:08;;;;;;;10.23;5.60;;;;;;;;;;5013954;28;20042;-86
2023/06/06 02:45:55;;;;;;;9.02;5.25;;;;;;;;;;5019173;28;20045;-86
2023/06/06 02:48:45;;;;;;;12.10;5.43;;;;;;;;;;5019254;28;20046;-87
2023/06/06 02:51:30;;;;;;;10.32;5.55;;;;;;;;;;5018810;28;20423;-86
2023/06/06 02:54:15;;;;;;;12.95;5.38;;;;;;;;;;5019127;28;20057;-87
2023/06/06 02:57:01;;;;;;;9.27;5.43;;;;;;;;;;5019002;28;20049;-87
2023/06/06 02:59:46;;;;;;;11.32;5.65;;;;;;;;;;5026383;28;20065;-86
2023/06/06 03:02:31;;;;;;;8.63;5.40;;;;;;;;;;5013785;28;20041;-87
2023/06/06 03:05:17;;;;;;;9.40;5.22;;;;;;;;;;5013243;28;20054;-87
2023/06/06 03:08:02;;;;;;;7.78;4.72;;;;;;;;;;5019004;28;20053;-86
2023/06/06 03:10:50;;;;;;;11.48;5.10;;;;;;;;;;5018867;28;20054;-87
2023/06/06 03:13:35;;;;;;;8.48;5.05;;;;;;;;;;5018656;28;20042;-87
2023/06/06 03:16:26;;;;;;;7.13;5.10;;;;;;;;;;5018932;28;20053;-86
2023/06/06 03:19:12;;;;;;;10.15;5.43;;;;;;;;;;5019202;28;20050;-86
2023/06/06 03:21:59;;;;;;;8.13;5.05;;;;;;;;;;5017962;28;20037;-86
2023/06/06 03:24:46;;;;;;;10.10;5.30;;;;;;;;;;5018945;28;20041;-86
2023/06/06 03:27:32;;;;;;;9.20;5.00;;;;;;;;;;5018613;28;20407;-87
2023/06/06 03:30:18;;;;;;;10.00;5.07;;;;;;;;;;5012851;28;20053;-86
2023/06/06 03:33:06;;;;;;;8.55;4.90;;;;;;;;;;5020536;28;20046;-88
2023/06/06 03:35:53;;;;;;;6.55;5.22;;;;;;;;;;5022508;28;20065;-85
2023/06/06 03:38:39;;;;;;;6.85;5.18;;;;;;;;;;5022553;28;20053;-84
2023/06/06 03:41:25;;;;;;;11.43;5.47;;;;;;;;;;5021982;28;20395;-84
2023/06/06 03:44:11;;;;;;;6.45;5.18;;;;;;;;;;5029698;28;20395;-83
2023/06/06 03:46:56;;;;;;;10.27;6.18;;;;;;;;;;5022063;28;20042;-84
2023/06/06 03:49:42;;;;;;;10.10;6.47;;;;;;;;;;5021453;28;20475;-83
2023/06/06 03:52:28;;;;;;;8.52;5.97;;;;;;;;;;5021934;28;20037;-84
2023/06/06 03:55:13;;;;;;;10.73;5.63;;;;;;;;;;5021739;28;20054;-84
2023/06/06 03:58:01;;;;;;;6.55;5.20;;;;;;;;;;5016321;28;20042;-84
2023/06/06 04:00:47;;;;;;;9.70;5.38;;;;;;;;;;5021435;28;20403;-85
2023/06/06 04:03:36;;;;;;;8.50;5.53;;;;;;;;;;5016206;28;20054;-85
2023/06/06 04:06:22;;;;;;;7.20;5.68;;;;;;;;;;5021724;28;20045;-85
2023/06/06 04:09:08;;;;;;;9.20;5.90;;;;;;;;;;5015769;28;20484;-85
2023/06/06 04:11:54;;;;;;;11.60;6.22;;;;;;;;;;5021427;28;20475;-85
2023/06/06 04:14:39;;;;;;;11.30;6.32;;;;;;;;;;5016073;28;20042;-85
2023/06/06 04:17:26;;;;;;;10.93;6.25;;;;;;;;;;5021375;28;20392;-85
2023/06/06 04:20:12;;;;;;;8.00;6.10;;;;;;;;;;5021246;28;20046;-85
2023/06/06 04:23:00;;;;;;;11.20;6.78;;;;;;;;;;5021252;28;20038;-84
2023/06/06 04:25:45;;;;;;;9.02;6.22;;;;;;;;;;5021317;28;20403;-85
2023/06/06 04:28:31;;;;;;;9.30;5.85;;;;;;;;;;5021287;28;20046;-85
2023/06/06 04:31:17;;;;;;;8.60;5.85;;;;;;;;;;5014226;28;20492;-83
2023/06/06 04:34:03;;;;;;;10.38;5.05;;;;;;;;;;5020966;28;20045;-83
2023/06/06 04:36:51;;;;;;;12.63;5.28;;;;;;;;;;5020763;28;20049;-84
2023/06/06 04:39:39;;;;;;;9.10;5.28;;;;;;;;;;5021198;28;20054;-85
2023/06/06 04:42:32;;;;;;;9.32;5.10;;;;;;;;;;5015443;28;20037;-85
2023/06/06 04:45:18;;;;;;;7.07;5.13;;;;;;;;;;5018019;28;20050;-85
2023/06/06 04:48:05;;;;;;;9.38;5.50;;;;;;;;;;5018813;28;20046;-86
2023/06/06 04:50:52;;;;;;;8.55;5.15;;;;;;;;;;5018717;28;20050;-85
2023/06/06 04:53:44;;;;;;;6.85;5.57;;;;;;;;;;5012910;28;20401;-85
2023/06/06 04:56:30;;;;;;;10.15;4.72;;;;;;;;;;5025876;28;20038;-85
2023/06/06 04:59:17;;;;;;;8.38;5.65;;;;;;;;;;5013990;28;20042;-84
2023/06/06 05:02:03;;;;;;;11.35;5.00;;;;;;;;;;5014904;28;20050;-84
2023/06/06 05:04:52;;;;;;;10.35;5.35;;;;;;;;;;5015398;28;20042;-85
2023/06/06 05:07:38;;;;;;;7.18;5.43;;;;;;;;;;5034193;28;20046;-84
2023/06/06 05:10:23;;;;;;;7.85;5.93;;;;;;;;;;5027390;28;20041;-85
2023/06/06 05:13:08;;;;;;;8.57;5.30;;;;;;;;;;5014912;28;20037;-85
2023/06/06 05:15:53;;;;;;;14.68;5.28;;;;;;;;;;5000119;28;20042;-85
2023/06/06 05:18:39;;;;;;;7.53;5.18;;;;;;;;;;5020474;28;20042;-86
2023/06/06 05:21:25;;;;;;;6.95;5.03;;;;;;;;;;5014428;28;20042;-83
2023/06/06 05:24:10;;;;;;;9.35;5.38;;;;;;;;;;5020245;28;20500;-84
2023/06/06 05:26:55;;;;;;;7.40;5.20;;;;;;;;;;5014699;28;20046;-84
2023/06/06 05:29:41;;;;;;;7.82;5.47;;;;;;;;;;5026115;28;20049;-85
2023/06/06 05:32:27;;;;;;;11.40;6.18;;;;;;;;;;5007283;28;20042;-84
2023/06/06 05:35:12;;;;;;;13.55;6.47;;;;;;;;;;5027165;28;20054;-86
2023/06/06 05:37:58;;;;;;;11.75;6.35;;;;;;;;;;5014267;28;20045;-83
2023/06/06 05:40:44;;;;;;;11.07;5.80;;;;;;;;;;5019857;28;20411;-85
2023/06/06 05:43:33;;;;;;;10.32;5.47;;;;;;;;;;5014401;28;20403;-85
2023/06/06 05:46:18;;;;;;;7.32;5.75;;;;;;;;;;5018635;28;20054;-84
2023/06/06 05:49:03;;;;;;;11.07;6.15;;;;;;;;;;5013618;28;20395;-84
2023/06/06 05:51:49;;;;;;;11.27;5.95;;;;;;;;;;5013952;28;20042;-84
2023/06/06 05:54:35;;;;;;;9.13;4.85;;;;;;;;;;5007736;28;20042;-85
2023/06/06 05:57:22;;;;;;;10.95;5.13;;;;;;;;;;5019284;28;20050;-84
2023/06/06 06:00:09;;;;;;;7.75;5.28;;;;;;;;;;5019298;28;20041;-84
2023/06/06 06:03:01;;;;;;;12.52;5.68;;;;;;;;;;5014078;28;20038;-84
2023/06/06 06:05:47;;;;;;;15.68;6.38;;;;;;;;;;5019966;28;20041;-84
2023/06/06 06:08:34;;;;;;;7.13;5.25;;;;;;;;;;5013853;28;20054;-84
2023/06/06 06:11:19;;;;;;;9.77;5.60;;;;;;;;;;5026566;28;20041;-84
2023/06/06 06:14:05;;;;;;;10.95;5.47;;;;;;;;;;5027073;28;20046;-85
2023/06/06 06:16:50;;;;;;;12.63;5.85;;;;;;;;;;5019371;28;20050;-84
2023/06/06 06:19:36;;;;;;;8.88;5.40;;;;;;;;;;5008438;28;20340;-83
2023/06/06 06:22:22;;;;;;;7.55;5.38;;;;;;;;;;5026577;28;20034;-85
2023/06/06 06:25:16;;;;;;;10.77;5.63;;;;;;;;;;5018806;28;20487;-84
2023/06/06 06:28:02;;;;;;;11.65;6.35;;;;;;;;;;5013901;28;20042;-84
2023/06/06 06:30:48;;;;;;;8.38;6.13;;;;;;;;;;4998801;28;20050;-84
2023/06/06 06:33:33;;;;;;;10.20;6.38;;;;;;;;;;4998503;28;20050;-84
2023/06/06 06:36:18;;;;;;;13.10;6.43;;;;;;;;;;5013409;28;20479;-85
2023/06/06 06:39:03;;;;;;;11.77;6.55;;;;;;;;;;5019173;28;20046;-86
2023/06/06 06:41:49;;;;;;;14.07;6.30;;;;;;;;;;5014191;28;20464;-86
2023/06/06 06:44:34;;;;;;;9.90;6.13;;;;;;;;;;5013553;28;20042;-85
2023/06/06 06:47:19;;;;;;;11.52;7.47;;;;;;;;;;5005603;28;20045;-85
2023/06/06 06:50:06;;;;;;;11.88;7.53;;;;;;;;;;5026558;28;20049;-85
2023/06/06 06:52:53;;;;;;;9.10;6.30;;;;;;;;;;5013622;28;20046;-85
2023/06/06 06:55:39;;;;;;;9.05;6.15;;;;;;;;;;5019135;28;20038;-84
2023/06/06 06:58:33;;;;;;;10.52;5.28;;;;;;;;;;5013400;28;20049;-87
2023/06/06 07:01:27;;;;;;;10.50;4.40;;;;;;;;;;5019235;28;20053;-87
2023/06/06 07:04:12;;;;;;;9.10;4.13;;;;;;;;;;5013478;28;20046;-87
2023/06/06 07:06:57;;;;;;;9.73;6.22;;;;;;;;;;5013831;28;20038;-88
2023/06/06 07:09:46;;;;;;;8.63;5.40;;;;;;;;;;5016380;28;20049;-87
2023/06/06 07:12:31;;;;;;;11.45;6.43;;;;;;;;;;5022382;28;20412;-83
2023/06/06 07:15:17;;;;;;;40.28;17.58;;;;;;;;;;5030019;28;20076;-84
2023/06/06 07:18:03;;;;;;;29.35;15.80;;;;;;;;;;5017689;28;20034;-83
2023/06/06 07:20:48;;;;;;;62.30;31.95;;;;;;;;;;5030142;28;20415;-84
2023/06/06 07:23:34;;;;;;;17.85;10.02;;;;;;;;;;5022446;28;20050;-87
2023/06/06 07:26:20;;;;;;;6.75;4.57;;;;;;;;;;5029740;28;20050;-85
2023/06/06 07:29:07;;;;;;;7.45;3.75;;;;;;;;;;5016572;28;20038;-82
2023/06/06 07:31:54;;;;;;;5.20;3.92;;;;;;;;;;5017041;28;20038;-85
2023/06/06 07:34:40;;;;;;;6.22;3.85;;;;;;;;;;5016881;28;20045;-82
2023/06/06 07:37:25;;;;;;;11.98;5.97;;;;;;;;;;5016487;28;20041;-82
2023/06/06 07:40:11;;;;;;;29.23;14.75;;;;;;;;;;5016602;28;20496;-82
2023/06/06 07:42:57;;;;;;;11.02;6.55;;;;;;;;;;5016650;28;20039;-83
2023/06/06 07:45:43;;;;;;;24.63;11.05;;;;;;;;;;5016279;28;20049;-79
2023/06/06 07:48:28;;;;;;;6.25;3.50;;;;;;;;;;5016361;28;20388;-77
2023/06/06 07:51:14;;;;;;;6.32;3.85;;;;;;;;;;5016272;28;20045;-77
2023/06/06 07:54:00;;;;;;;3.75;2.95;;;;;;;;;;5015430;28;20057;-78
2023/06/06 07:56:46;;;;;;;11.73;5.75;;;;;;;;;;5016416;28;20050;-80
2023/06/06 07:59:32;;;;;;;6.28;3.88;;;;;;;;;;5016324;28;20046;-80
2023/06/06 08:02:17;;;;;;;10.20;5.32;;;;;;;;;;5028925;28;20492;-80
2023/06/06 08:05:04;;;;;;;6.03;3.08;;;;;;;;;;5016288;28;20388;-80
2023/06/06 08:07:50;;;;;;;55.88;28.80;;;;;;;;;;5016326;28;20046;-79
2023/06/06 08:10:35;;;;;;;37.78;20.73;;;;;;;;;;5016166;28;20045;-80
2023/06/06 08:13:21;;;;;;;7.30;5.05;;;;;;;;;;5015831;28;20042;-79
2023/06/06 08:16:08;;;;;;;11.43;6.60;;;;;;;;;;5016346;28;20053;-79
2023/06/06 08:18:52;;;;;;;9.10;3.30;;;;;;;;;;5015906;28;20396;-84
2023/06/06 08:21:37;;;;;;;4.53;2.92;;;;;;;;;;5009526;28;20387;-85
2023/06/06 08:24:23;;;;;;;6.05;3.08;;;;;;;;;;5016053;28;20037;-80
2023/06/06 08:27:08;;;;;;;4.50;3.05;;;;;;;;;;5015766;28;20403;-79
2023/06/06 08:29:54;;;;;;;5.43;2.50;;;;;;;;;;5018703;28;20053;-81
2023/06/06 08:32:40;;;;;;;4.90;2.97;;;;;;;;;;5015493;28;20050;-83
2023/06/06 08:35:25;;;;;;;4.82;2.95;;;;;;;;;;5015445;28;20042;-85
2023/06/06 08:38:11;;;;;;;3.95;2.50;;;;;;;;;;5015474;28;20042;-79
2023/06/06 08:41:00;;;;;;;3.72;2.28;;;;;;;;;;5015651;28;20050;-80
2023/06/06 08:43:46;;;;;;;5.15;2.47;;;;;;;;;;5015387;28;20034;-80
2023/06/06 08:46:36;;;;;;;3.85;2.60;;;;;;;;;;5015689;28;20046;-83
2023/06/06 08:49:21;;;;;;;7.63;2.60;;;;;;;;;;5028273;28;20050;-83
2023/06/06 08:52:08;;;;;;;6.68;2.60;;;;;;;;;;5015454;28;20041;-83
2023/06/06 08:54:54;;;;;;;5.70;2.58;;;;;;;;;;5027948;28;20050;-79
2023/06/06 08:57:41;;;;;;;3.60;2.60;;;;;;;;;;5015133;28;20042;-80
2023/06/06 09:00:26;;;;;;;6.32;2.65;;;;;;;;;;5015351;28;20042;-78
2023/06/06 09:03:13;;;;;;;4.97;2.20;;;;;;;;;;5014788;28;20034;-79
2023/06/06 09:06:00;;;;;;;5.25;2.40;;;;;;;;;;5014130;28;20050;-79
2023/06/06 09:08:46;;;;;;;6.50;2.85;;;;;;;;;;5014840;28;20058;-78
2023/06/06 09:11:32;;;;;;;6.55;2.80;;;;;;;;;;5014787;28;20045;-78
2023/06/06 09:14:17;;;;;;;7.10;2.53;;;;;;;;;;5015236;28;20480;-80
2023/06/06 09:17:03;;;;;;;6.00;2.38;;;;;;;;;;5014775;28;20396;-79
2023/06/06 09:19:50;;;;;;;4.63;2.60;;;;;;;;;;5014912;28;20038;-79
2023/06/06 09:22:43;;;;;;;6.72;2.70;;;;;;;;;;5014915;28;20472;-78
2023/06/06 09:25:28;;;;;;;4.13;2.63;;;;;;;;;;5014265;28;20471;-81
2023/06/06 09:28:15;;;;;;;3.63;2.70;;;;;;;;;;5012520;28;20476;-80
2023/06/06 09:31:00;;;;;;;4.40;2.97;;;;;;;;;;5013884;28;20403;-79
2023/06/06 09:33:47;;;;;;;3.80;2.83;;;;;;;;;;5005238;28;20480;-79
2023/06/06 09:36:33;;;;;;;9.07;3.08;;;;;;;;;;5014710;28;20391;-79
2023/06/06 09:39:19;;;;;;;7.53;3.03;;;;;;;;;;5005389;28;20046;-80
2023/06/06 09:42:06;;;;;;;4.32;3.03;;;;;;;;;;5014068;28;20408;-79
2023/06/06 09:44:52;;;;;;;4.72;3.75;;;;;;;;;;5014180;28;20400;-80
2023/06/06 09:47:48;;;;;;;6.50;2.95;;;;;;;;;;5014495;28;20480;-81
2023/06/06 09:50:33;;;;;;;3.55;2.60;;;;;;;;;;5014401;28;20045;-82
2023/06/06 09:53:23;;;;;;;5.07;2.78;;;;;;;;;;5013807;28;20428;-82
2023/06/06 09:56:08;;;;;;;6.82;4.00;;;;;;;;;;5027304;28;20480;-85
2023/06/06 09:58:55;;;;;;;4.53;3.33;;;;;;;;;;5014530;28;20038;-81
2023/06/06 10:02:01;;;;;;;4.10;2.88;;;;;;;;;;5017407;28;20480;-85
2023/06/06 10:04:47;;;;;;;4.78;2.92;;;;;;;;;;5015192;28;20038;-86
2023/06/06 10:08:01;;;;;;;5.20;3.17;;;;;;;;;;5020887;28;20484;-91
2023/06/06 10:14:48;;;;;;;4.95;2.92;;;;;;;;;;5020302;28;20038;-90
2023/06/06 10:17:38;;;;;;;5.75;3.03;;;;;;;;;;5015627;28;20037;-84
2023/06/06 10:20:24;;;;;;;6.22;2.92;;;;;;;;;;5026811;28;20038;-82
2023/06/06 10:23:10;;;;;;;6.72;2.75;;;;;;;;;;5013862;28;20042;-80
2023/06/06 10:25:59;;;;;;;4.80;3.22;;;;;;;;;;5013735;28;20050;-80
2023/06/06 10:29:03;;;;;;;4.72;3.08;;;;;;;;;;5013580;28;20491;-80
2023/06/06 10:32:15;;;;;;;5.03;2.70;;;;;;;;;;5032641;28;20050;-83
2023/06/06 10:35:03;;;;;;;5.97;3.28;;;;;;;;;;5010476;28;20049;-81
2023/06/06 10:38:06;;;;;;;4.40;3.13;;;;;;;;;;5012796;28;20046;-80
2023/06/06 10:40:58;;;;;;;6.57;3.38;;;;;;;;;;5012495;28;20053;-79
2023/06/06 10:43:46;;;;;;;5.13;3.00;;;;;;;;;;5015513;28;20403;-78
2023/06/06 10:46:34;;;;;;;5.43;3.10;;;;;;;;;;5015807;28;20038;-80
2023/06/06 10:49:20;;;;;;;4.55;3.28;;;;;;;;;;5008447;28;20396;-80
2023/06/06 10:52:05;;;;;;;7.00;3.10;;;;;;;;;;5016194;28;20037;-81
2023/06/06 10:54:50;;;;;;;4.07;2.60;;;;;;;;;;5016009;28;20488;-84
2023/06/06 10:57:38;;;;;;;7.35;3.13;;;;;;;;;;5022535;28;20050;-84
2023/06/06 11:00:25;;;;;;;5.43;3.10;;;;;;;;;;5028866;28;20050;-83
2023/06/06 11:03:13;;;;;;;5.53;3.58;;;;;;;;;;5015943;28;20038;-84
2023/06/06 11:06:12;;;;;;;8.77;3.20;;;;;;;;;;5015056;28;20049;-82
2023/06/06 11:08:59;;;;;;;8.10;3.10;;;;;;;;;;5015865;28;20041;-81
2023/06/06 11:11:44;;;;;;;4.65;2.83;;;;;;;;;;5015963;28;20046;-80
2023/06/06 11:14:30;;;;;;;6.68;3.33;;;;;;;;;;5015978;28;20038;-79
2023/06/06 11:17:16;;;;;;;6.43;3.75;;;;;;;;;;5015799;28;20488;-81
2023/06/06 11:20:03;;;;;;;5.75;3.20;;;;;;;;;;5015490;28;20042;-85
2023/06/06 11:23:01;;;;;;;6.22;3.70;;;;;;;;;;5014309;28;20038;-82
2023/06/06 11:25:49;;;;;;;5.85;3.15;;;;;;;;;;5021267;28;20396;-83
2023/06/06 11:28:35;;;;;;;4.97;3.03;;;;;;;;;;5015767;28;20057;-81
2023/06/06 11:31:22;;;;;;;5.68;3.08;;;;;;;;;;4974732;28;1193812;-80
2023/06/06 11:34:11;;;;;;;6.07;3.45;;;;;;;;;;5016262;28;20050;-81
2023/06/06 11:36:58;;;;;;;4.20;3.47;;;;;;;;;;5016729;28;20492;-81
2023/06/06 11:39:42;;;;;;;5.18;3.58;;;;;;;;;;5016591;28;20045;-81
2023/06/06 11:42:28;;;;;;;4.28;3.08;;;;;;;;;;5009717;28;20054;-80
2023/06/06 11:45:17;;;;;;;8.07;3.55;;;;;;;;;;5016405;28;20038;-80
2023/06/06 11:48:03;;;;;;;5.93;3.40;;;;;;;;;;5016456;28;20388;-82
2023/06/06 11:50:48;;;;;;;5.32;3.40;;;;;;;;;;5016342;28;20038;-80
2023/06/06 11:53:33;;;;;;;12.15;6.20;;;;;;;;;;5015706;28;20480;-83
2023/06/06 11:56:21;;;;;;;8.80;3.65;;;;;;;;;;5008421;28;20042;-80
2023/06/06 11:59:08;;;;;;;6.60;4.00;;;;;;;;;;5016167;28;20054;-82
2023/06/06 12:01:56;;;;;;;4.55;3.67;;;;;;;;;;5017082;28;20392;-81
2023/06/06 12:04:47;;;;;;;8.65;3.47;;;;;;;;;;5023847;28;20045;-81
2023/06/06 12:07:33;;;;;;;4.53;3.45;;;;;;;;;;5014886;28;20050;-81
2023/06/06 12:10:27;;;;;;;7.20;3.47;;;;;;;;;;5021268;28;20499;-81
2023/06/06 12:13:30;;;;;;;5.00;3.47;;;;;;;;;;5022367;28;20042;-82
2023/06/06 12:16:22;;;;;;;4.55;3.33;;;;;;;;;;5024397;28;20050;-83
2023/06/06 12:19:18;;;;;;;7.50;3.22;;;;;;;;;;5023573;28;20483;-82
2023/06/06 12:22:04;;;;;;;6.85;3.70;;;;;;;;;;5024336;28;20487;-81
2023/06/06 12:24:50;;;;;;;4.90;3.53;;;;;;;;;;5035134;28;20038;-81
2023/06/06 12:27:36;;;;;;;6.85;3.78;;;;;;;;;;5010019;28;20045;-85
2023/06/06 12:30:31;;;;;;;6.63;4.28;;;;;;;;;;5028476;28;20046;-86
2023/06/06 12:33:16;;;;;;;;;;;;;;;;;;5001386;28;20050;-86
2023/06/06 12:36:15;;;;;;;9.63;4.95;;;;;;;;;;5036810;28;19913;-86
2023/06/06 12:39:03;;;;;;;16.70;6.22;;;;;;;;;;5015196;28;20266;-87
2023/06/06 12:41:51;;;;;;;9.65;5.53;;;;;;;;;;5020904;28;20041;-86
2023/06/06 12:44:37;;;;;;;11.73;5.57;;;;;;;;;;5015347;28;20034;-89
2023/06/06 12:47:22;;;;;;;10.32;6.00;;;;;;;;;;5020580;28;20396;-87
2023/06/06 12:50:08;;;;;;;14.02;5.70;;;;;;;;;;5028464;28;20479;-89
2023/06/06 12:53:00;;;;;;;10.88;6.43;;;;;;;;;;5020669;28;20041;-89
2023/06/06 12:56:03;;;;;;;9.68;5.80;;;;;;;;;;5017998;28;20045;-89
2023/06/06 12:59:05;;;;;;;12.10;5.90;;;;;;;;;;5006634;28;20050;-89
2023/06/06 13:01:54;;;;;;;10.32;5.20;;;;;;;;;;5010265;28;20050;-88
2023/06/06 13:04:48;;;;;;;8.77;5.80;;;;;;;;;;5021045;28;20038;-88
2023/06/06 13:07:34;;;;;;;8.57;5.88;;;;;;;;;;5000114;28;20049;-88
2023/06/06 13:10:22;;;;;;;8.27;5.10;;;;;;;;;;5013809;28;20407;-87
2023/06/06 13:13:08;;;;;;;8.05;5.40;;;;;;;;;;5034292;28;20042;-88
2023/06/06 13:15:53;;;;;;;8.60;7.03;;;;;;;;;;5006850;28;20042;-89
2023/06/06 13:18:39;;;;;;;14.20;8.25;;;;;;;;;;5020258;28;20396;-80
2023/06/06 13:21:24;;;;;;;15.88;9.63;;;;;;;;;;5007419;28;20507;-81
2023/06/06 13:24:10;;;;;;;8.25;5.32;;;;;;;;;;5014349;28;20038;-82
2023/06/06 13:26:56;;;;;;;10.15;4.50;;;;;;;;;;5015162;28;20383;-80
2023/06/06 13:29:41;;;;;;;8.35;5.20;;;;;;;;;;5014318;28;20054;-80
2023/06/06 13:32:27;;;;;;;7.65;4.88;;;;;;;;;;5007510;28;20042;-81
2023/06/06 13:35:12;;;;;;;11.48;6.03;;;;;;;;;;5014171;28;20049;-79
2023/06/06 13:37:58;;;;;;;10.70;6.10;;;;;;;;;;5014249;28;20042;-79
2023/06/06 13:40:44;;;;;;;8.25;4.60;;;;;;;;;;5014298;28;20483;-80
2023/06/06 13:43:29;;;;;;;7.30;4.40;;;;;;;;;;5007673;28;20046;-78
2023/06/06 13:46:15;;;;;;;6.65;4.20;;;;;;;;;;5013905;28;20050;-79
2023/06/06 13:49:01;;;;;;;6.10;4.30;;;;;;;;;;5013804;28;20045;-79
2023/06/06 13:51:47;;;;;;;7.43;5.15;;;;;;;;;;5014346;28;20054;-79
2023/06/06 13:54:32;;;;;;;6.65;4.80;;;;;;;;;;5013885;28;20050;-80
2023/06/06 13:57:18;;;;;;;7.53;4.75;;;;;;;;;;5014068;28;20053;-80
2023/06/06 14:00:05;;;;;;;8.45;6.03;;;;;;;;;;5013726;28;20045;-79
2023/06/06 14:02:50;;;;;;;8.50;5.70;;;;;;;;;;5026827;28;20033;-79
2023/06/06 14:05:36;;;;;;;9.25;5.43;;;;;;;;;;5007581;28;20383;-80
2023/06/06 14:08:21;;;;;;;10.93;5.53;;;;;;;;;;5005663;28;20483;-79
2023/06/06 14:11:10;;;;;;;9.55;6.63;;;;;;;;;;5013663;28;20479;-81
2023/06/06 14:13:57;;;;;;;8.82;5.80;;;;;;;;;;5013829;28;20042;-80
2023/06/06 14:16:43;;;;;;;7.43;4.28;;;;;;;;;;5013902;28;20045;-79
2023/06/06 14:19:35;;;;;;;7.80;5.53;;;;;;;;;;5025894;28;20041;-80
2023/06/06 14:22:33;;;;;;;14.80;6.60;;;;;;;;;;5013636;28;20042;-80
2023/06/06 14:25:18;;;;;;;14.52;9.25;;;;;;;;;;5019295;28;20046;-80
2023/06/06 14:28:05;;;;;;;12.70;7.90;;;;;;;;;;5013371;28;20487;-81
2023/06/06 14:30:50;;;;;;;10.18;6.00;;;;;;;;;;5012212;28;20054;-81
2023/06/06 14:33:35;;;;;;;9.35;6.00;;;;;;;;;;5013440;28;20081;-82
2023/06/06 14:36:22;;;;;;;6.95;5.35;;;;;;;;;;5013482;28;20476;-79
2023/06/06 14:39:06;;;;;;;7.95;5.13;;;;;;;;;;5013208;28;20071;-80
2023/06/06 14:41:52;;;;;;;7.90;5.60;;;;;;;;;;5013530;28;20054;-81
2023/06/06 14:44:38;;;;;;;8.18;5.68;;;;;;;;;;5008215;28;20038;-81
2023/06/06 14:47:23;;;;;;;7.90;5.90;;;;;;;;;;5013311;28;20045;-80
2023/06/06 14:50:09;;;;;;;8.63;5.75;;;;;;;;;;5013124;28;20409;-80
2023/06/06 14:52:55;;;;;;;6.82;5.40;;;;;;;;;;5013176;28;20046;-81
2023/06/06 14:55:40;;;;;;;5.13;4.45;;;;;;;;;;5013529;28;20038;-81
2023/06/06 14:58:26;;;;;;;7.20;4.63;;;;;;;;;;5006979;28;20046;-81
2023/06/06 15:01:11;;;;;;;6.60;5.10;;;;;;;;;;5013235;28;20492;-81
2023/06/06 15:03:57;;;;;;;9.68;5.47;;;;;;;;;;5013581;28;20388;-81
2023/06/06 15:06:42;;;;;;;7.30;5.70;;;;;;;;;;5012405;28;20042;-81
2023/06/06 15:09:28;;;;;;;8.30;5.47;;;;;;;;;;5011163;28;20041;-80
2023/06/06 15:12:19;;;;;;;11.35;7.32;;;;;;;;;;5011739;28;20042;-83
2023/06/06 15:15:06;;;;;;;8.00;5.72;;;;;;;;;;5013417;28;20038;-82
2023/06/06 15:17:51;;;;;;;16.20;8.70;;;;;;;;;;5013867;28;20046;-82
2023/06/06 15:20:49;;;;;;;8.90;5.60;;;;;;;;;;5013673;28;20041;-84
2023/06/06 15:23:35;;;;;;;5.85;4.55;;;;;;;;;;5012901;28;20041;-80
2023/06/06 15:26:21;;;;;;;6.55;4.20;;;;;;;;;;5012974;28;20476;-82
2023/06/06 15:29:07;;;;;;;7.18;5.07;;;;;;;;;;5027572;28;20034;-81
2023/06/06 15:31:58;;;;;;;7.70;5.40;;;;;;;;;;5016798;28;20037;-84
2023/06/06 15:34:43;;;;;;;8.85;6.97;;;;;;;;;;5013979;28;20038;-86
2023/06/06 15:37:32;;;;;;;16.52;10.57;;;;;;;;;;5008151;28;20042;-85
2023/06/06 15:40:17;;;;;;;7.10;4.78;;;;;;;;;;5015969;28;20038;-81
2023/06/06 15:43:03;;;;;;;13.45;7.40;;;;;;;;;;5016354;28;20145;-85
2023/06/06 15:45:48;;;;;;;7.10;5.57;;;;;;;;;;5016553;28;20042;-82
2023/06/06 15:48:34;;;;;;;11.07;5.43;;;;;;;;;;5009055;28;20042;-86
2023/06/06 15:51:19;;;;;;;6.03;3.88;;;;;;;;;;5027863;28;20046;-81
2023/06/06 15:54:05;;;;;;;4.82;3.45;;;;;;;;;;5015854;28;20504;-80
2023/06/06 15:56:51;;;;;;;5.45;4.55;;;;;;;;;;5016230;28;20042;-84
2023/06/06 15:59:37;;;;;;;6.20;4.45;;;;;;;;;;5016386;28;20061;-84
2023/06/06 16:02:22;;;;;;;6.07;4.00;;;;;;;;;;5015644;28;20041;-80
2023/06/06 16:05:08;;;;;;;7.25;4.32;;;;;;;;;;5016282;28;20041;-81
2023/06/06 16:07:53;;;;;;;7.10;5.18;;;;;;;;;;5016213;28;20034;-80
2023/06/06 16:10:39;;;;;;;9.38;5.00;;;;;;;;;;5016099;28;20045;-83
2023/06/06 16:13:24;;;;;;;6.45;5.05;;;;;;;;;;5015918;28;20046;-83
2023/06/06 16:16:10;;;;;;;6.72;4.95;;;;;;;;;;5015645;28;20037;-81
2023/06/06 16:18:55;;;;;;;5.53;4.32;;;;;;;;;;5015834;28;20053;-84
2023/06/06 16:21:41;;;;;;;6.55;4.55;;;;;;;;;;5021478;28;20042;-81
2023/06/06 16:24:27;;;;;;;7.57;4.57;;;;;;;;;;5007714;28;20050;-84
2023/06/06 16:27:12;;;;;;;16.90;10.05;;;;;;;;;;5015856;28;20046;-81
2023/06/06 16:29:58;;;;;;;9.70;5.68;;;;;;;;;;5015486;28;20464;-86
2023/06/06 16:32:44;;;;;;;9.52;5.35;;;;;;;;;;5015421;28;20054;-82
2023/06/06 16:35:30;;;;;;;7.97;4.30;;;;;;;;;;5014898;28;20045;-85
2023/06/06 16:38:15;;;;;;;6.28;3.85;;;;;;;;;;5015847;28;20049;-85
2023/06/06 16:41:01;;;;;;;7.18;3.38;;;;;;;;;;5019649;28;20061;-82